Time;durP1;ratioP1;P1;durP2;ratioP2;P2;SDS_P1;SDS_P2;PMS_P1;PMS_P2;Temp;Humidity;BMP_temperature;BMP_pressure;BME280_temperature;BME280_humidity;BME280_pressure;Samples;Min_cycle;Max_cycle;Signal;HPM_P1;HPM_P2
2023/07/03 00:00:56;;;;;;;;;;;;;;;17.37;80.24;100884.16;5006157;28;19925;-69
2023/07/03 00:03:22;;;;;;;;;;;;;;;17.31;79.19;100887.56;4998459;28;19973;-68
2023/07/03 00:05:49;;;;;;;;;;;;;;;17.20;79.43;100878.28;5003204;28;19929;-68
2023/07/03 00:08:16;;;;;;;;;;;;;;;17.20;80.03;100880.91;4996813;28;19977;-67
2023/07/03 00:10:43;;;;;;;;;;;;;;;17.17;80.30;100869.88;4977092;28;19926;-67
2023/07/03 00:13:09;;;;;;;;;;;;;;;17.16;80.26;100873.53;5005283;28;20020;-69
2023/07/03 00:15:36;;;;;;;;;;;;;;;17.09;80.50;100881.44;4979883;28;20035;-68
2023/07/03 00:18:03;;;;;;;;;;;;;;;17.16;80.12;100877.00;4983869;28;19929;-69
2023/07/03 00:20:30;;;;;;;;;;;;;;;17.13;79.98;100882.69;4995771;28;19930;-67
2023/07/03 00:22:56;;;;;;;;;;;;;;;17.14;79.99;100867.63;4989461;28;20528;-68
2023/07/03 00:25:23;;;;;;;;;;;;;;;17.13;80.33;100873.91;4985195;28;19941;-67
2023/07/03 00:27:49;;;;;;;;;;;;;;;17.12;79.98;100878.41;4989915;28;19926;-67
2023/07/03 00:30:16;;;;;;;;;;;;;;;17.04;80.83;100873.22;4992881;28;21006;-66
2023/07/03 00:32:42;;;;;;;;;;;;;;;16.99;80.44;100865.84;4978759;28;19933;-68
2023/07/03 00:35:09;;;;;;;;;;;;;;;16.98;80.51;100863.38;4998233;28;20390;-68
2023/07/03 00:37:35;;;;;;;;;;;;;;;16.99;80.61;100865.00;4993532;28;19972;-66
2023/07/03 00:40:03;;;;;;;;;;;;;;;17.00;80.36;100875.41;5004396;28;19925;-66
2023/07/03 00:42:29;;;;;;;;;;;;;;;16.93;79.95;100865.75;5001567;28;19934;-67
2023/07/03 00:44:56;;;;;;;;;;;;;;;16.90;80.29;100863.50;4997187;28;20009;-67
2023/07/03 00:47:23;;;;;;;;;;;;;;;16.88;80.58;100865.50;5004410;28;19926;-69
2023/07/03 00:49:50;;;;;;;;;;;;;;;16.95;80.22;100869.03;4980094;28;19930;-66
2023/07/03 00:52:17;;;;;;;;;;;;;;;16.83;79.91;100859.94;5001851;28;19932;-66
2023/07/03 00:54:43;;;;;;;;;;;;;;;16.80;80.05;100866.41;4984912;28;19933;-66
2023/07/03 00:57:11;;;;;;;;;;;;;;;16.83;79.08;100867.88;5008273;28;20363;-69
2023/07/03 00:59:37;;;;;;;;;;;;;;;16.81;79.80;100860.09;4996782;28;19929;-67
2023/07/03 01:02:16;;;;;;;;;;;;;;;16.84;79.52;100856.25;4990994;28;20406;-66
2023/07/03 01:05:02;;;;;;;;;;;;;;;16.82;79.57;100864.44;4992068;28;20487;-67
2023/07/03 01:07:30;;;;;;;;;;;;;;;16.81;80.03;100860.09;5000547;28;19929;-68
2023/07/03 01:09:59;;;;;;;;;;;;;;;16.73;79.95;100852.25;4996889;28;19929;-66
2023/07/03 01:12:27;;;;;;;;;;;;;;;16.66;80.31;100870.72;4992539;28;19956;-66
2023/07/03 01:14:57;;;;;;;;;;;;;;;16.71;80.69;100865.69;5004308;28;19926;-68
2023/07/03 01:17:26;;;;;;;;;;;;;;;16.71;80.42;100867.50;4995841;28;19979;-69
2023/07/03 01:19:53;;;;;;;;;;;;;;;16.68;79.73;100867.88;4998280;28;20509;-67
2023/07/03 01:22:29;;;;;;;;;;;;;;;16.65;80.13;100857.66;4993417;28;19961;-69
2023/07/03 01:24:58;;;;;;;;;;;;;;;16.67;80.52;100850.34;4996752;28;20582;-67
2023/07/03 01:27:27;;;;;;;;;;;;;;;16.56;80.18;100871.00;5005716;28;20501;-69
2023/07/03 01:29:54;;;;;;;;;;;;;;;16.56;80.81;100851.63;4985727;28;20376;-67
2023/07/03 01:32:22;;;;;;;;;;;;;;;16.50;81.43;100858.50;4993477;28;19984;-66
2023/07/03 01:34:50;;;;;;;;;;;;;;;16.56;80.92;100859.59;5001076;28;19929;-66
2023/07/03 01:37:17;;;;;;;;;;;;;;;16.50;81.00;100857.66;5015521;28;19929;-68
2023/07/03 01:39:45;;;;;;;;;;;;;;;16.48;81.29;100857.03;4988999;28;19929;-66
2023/07/03 01:42:12;;;;;;;;;;;;;;;16.41;81.84;100849.84;4995242;28;20453;-67
2023/07/03 01:44:39;;;;;;;;;;;;;;;16.37;82.06;100858.34;4994906;28;20641;-69
2023/07/03 01:47:07;;;;;;;;;;;;;;;16.28;83.04;100859.44;4999744;28;19995;-67
2023/07/03 01:49:33;;;;;;;;;;;;;;;16.24;83.52;100851.03;5003820;28;20024;-67
2023/07/03 01:52:07;;;;;;;;;;;;;;;16.22;83.84;100853.03;4991689;28;19929;-66
2023/07/03 01:54:55;;;;;;;;;;;;;;;16.26;84.52;100853.50;4995946;28;19936;-67
2023/07/03 01:57:32;;;;;;;;;;;;;;;16.13;85.07;100840.91;4971168;28;20170;-66
2023/07/03 02:00:03;;;;;;;;;;;;;;;16.09;85.22;100843.09;4996401;28;20008;-66
2023/07/03 02:02:30;;;;;;;;;;;;;;;15.99;86.30;100847.81;5001294;28;20025;-66
2023/07/03 02:05:04;;;;;;;;;;;;;;;15.97;86.55;100845.34;4995964;28;19925;-67
2023/07/03 02:07:32;;;;;;;;;;;;;;;15.94;87.15;100832.50;4971881;28;20425;-66
2023/07/03 02:09:58;;;;;;;;;;;;;;;15.91;87.75;100832.84;4996378;28;20483;-66
2023/07/03 02:12:24;;;;;;;;;;;;;;;15.88;88.60;100833.22;4992582;28;19930;-67
2023/07/03 02:14:51;;;;;;;;;;;;;;;15.89;88.82;100831.41;4992673;28;20275;-65
2023/07/03 02:17:17;;;;;;;;;;;;;;;15.86;88.92;100831.75;4989137;28;19973;-66
2023/07/03 02:19:43;;;;;;;;;;;;;;;15.89;88.94;100834.84;4988633;28;19937;-68
2023/07/03 02:22:10;;;;;;;;;;;;;;;15.84;89.20;100837.25;4990611;28;19925;-68
2023/07/03 02:24:36;;;;;;;;;;;;;;;15.81;90.14;100841.03;4994119;28;20607;-68
2023/07/03 02:27:03;;;;;;;;;;;;;;;15.79;90.06;100831.66;4976375;28;19930;-69
2023/07/03 02:29:29;;;;;;;;;;;;;;;15.75;91.57;100852.34;5003391;28;19929;-68
2023/07/03 02:31:56;;;;;;;;;;;;;;;15.75;91.96;100833.03;4996140;28;20436;-68
2023/07/03 02:34:22;;;;;;;;;;;;;;;15.80;92.38;100825.38;4999173;28;20024;-69
2023/07/03 02:36:49;;;;;;;;;;;;;;;15.82;92.09;100829.47;5007378;28;20029;-69
2023/07/03 02:39:15;;;;;;;;;;;;;;;15.85;92.17;100830.94;4994403;28;20433;-70
2023/07/03 02:41:42;;;;;;;;;;;;;;;15.84;93.49;100823.19;4984972;28;20365;-70
2023/07/03 02:44:08;;;;;;;;;;;;;;;15.86;92.98;100821.16;4996498;28;20374;-70
2023/07/03 02:46:34;;;;;;;;;;;;;;;15.84;94.26;100818.72;5005497;28;20032;-70
2023/07/03 02:49:01;;;;;;;;;;;;;;;15.72;95.81;100817.47;4997251;28;20371;-70
2023/07/03 02:51:27;;;;;;;;;;;;;;;15.78;95.82;100820.28;4993244;28;19929;-70
2023/07/03 02:53:54;;;;;;;;;;;;;;;15.77;95.89;100828.38;5002320;28;20400;-70
2023/07/03 02:56:21;;;;;;;;;;;;;;;15.78;96.83;100825.56;4982774;28;20390;-70
2023/07/03 02:58:47;;;;;;;;;;;;;;;15.84;96.71;100817.88;4999348;28;20039;-67
2023/07/03 03:01:14;;;;;;;;;;;;;;;15.78;97.68;100814.97;4995273;28;19930;-67
2023/07/03 03:03:41;;;;;;;;;;;;;;;15.76;98.28;100816.16;5004465;28;20282;-68
2023/07/03 03:06:07;;;;;;;;;;;;;;;15.75;99.41;100817.97;4983457;28;19929;-68
2023/07/03 03:08:34;;;;;;;;;;;;;;;15.72;99.64;100820.13;4998010;28;19936;-69
2023/07/03 03:11:00;;;;;;;;;;;;;;;15.74;100.00;100820.78;4996672;28;19965;-68
2023/07/03 03:13:26;;;;;;;;;;;;;;;15.82;99.96;100816.25;4995498;28;19952;-68
2023/07/03 03:15:54;;;;;;;;;;;;;;;15.83;100.00;100817.06;4988129;28;20587;-67
2023/07/03 03:18:21;;;;;;;;;;;;;;;15.84;100.00;100815.25;4979848;28;19981;-69
2023/07/03 03:20:47;;;;;;;;;;;;;;;15.85;100.00;100816.91;5002748;28;19971;-68
2023/07/03 03:23:14;;;;;;;;;;;;;;;15.84;100.00;100815.25;4982702;28;19933;-68
2023/07/03 03:25:41;;;;;;;;;;;;;;;15.77;100.00;100813.31;4998663;28;19929;-68
2023/07/03 03:28:08;;;;;;;;;;;;;;;15.79;100.00;100810.50;4992836;28;19936;-68
2023/07/03 03:30:34;;;;;;;;;;;;;;;15.80;100.00;100814.81;4982867;28;19930;-70
2023/07/03 03:33:01;;;;;;;;;;;;;;;15.78;100.00;100817.63;4999624;28;19929;-68
2023/07/03 03:35:27;;;;;;;;;;;;;;;15.80;100.00;100825.38;4995929;28;20406;-70
2023/07/03 03:37:53;;;;;;;;;;;;;;;15.80;100.00;100817.44;4988440;28;19930;-68
2023/07/03 03:40:20;;;;;;;;;;;;;;;15.74;100.00;100815.50;5001706;28;19973;-68
2023/07/03 03:42:46;;;;;;;;;;;;;;;15.70;100.00;100820.31;5005045;28;19925;-68
2023/07/03 03:45:12;;;;;;;;;;;;;;;15.68;100.00;100817.03;4994913;28;19972;-67
2023/07/03 03:47:39;;;;;;;;;;;;;;;15.75;100.00;100817.16;4981877;28;19960;-68
2023/07/03 03:50:06;;;;;;;;;;;;;;;15.76;100.00;100824.09;5000476;28;19933;-68
2023/07/03 03:52:32;;;;;;;;;;;;;;;15.74;100.00;100820.78;4990649;28;20000;-67
2023/07/03 03:54:58;;;;;;;;;;;;;;;15.74;100.00;100815.50;4998571;28;19926;-68
2023/07/03 03:57:25;;;;;;;;;;;;;;;15.73;100.00;100814.69;4983037;28;19933;-68
2023/07/03 03:59:51;;;;;;;;;;;;;;;15.74;100.00;100815.50;4989023;28;20053;-68
2023/07/03 04:02:18;;;;;;;;;;;;;;;15.71;100.00;100821.94;4988365;28;19930;-70
2023/07/03 04:04:44;;;;;;;;;;;;;;;15.72;100.00;100820.97;4975865;28;19976;-70
2023/07/03 04:07:11;;;;;;;;;;;;;;;15.69;100.00;100823.13;4997272;28;19933;-68
2023/07/03 04:09:37;;;;;;;;;;;;;;;15.73;100.00;100827.09;4990724;28;19965;-68
2023/07/03 04:12:04;;;;;;;;;;;;;;;15.74;100.00;100826.91;4991565;28;19929;-68
2023/07/03 04:14:30;;;;;;;;;;;;;;;15.71;100.00;100818.50;5000803;28;19929;-68
2023/07/03 04:16:57;;;;;;;;;;;;;;;15.78;100.00;100817.63;4982653;28;19988;-68
2023/07/03 04:19:24;;;;;;;;;;;;;;;15.79;100.00;100824.53;4982783;28;20357;-68
2023/07/03 04:21:50;;;;;;;;;;;;;;;15.76;100.00;100819.63;4998767;28;19929;-68
2023/07/03 04:24:17;;;;;;;;;;;;;;;15.73;100.00;100829.75;4995965;28;19980;-68
2023/07/03 04:26:43;;;;;;;;;;;;;;;15.63;100.00;100828.13;4995752;28;20089;-69
2023/07/03 04:29:10;;;;;;;;;;;;;;;15.61;100.00;100834.59;4996479;28;19929;-69
2023/07/03 04:31:36;;;;;;;;;;;;;;;15.50;100.00;100829.75;4994436;28;19984;-68
2023/07/03 04:34:03;;;;;;;;;;;;;;;15.49;100.00;100833.41;4973018;28;20568;-67
2023/07/03 04:36:29;;;;;;;;;;;;;;;15.50;100.00;100830.56;4990746;28;20519;-68
2023/07/03 04:38:57;;;;;;;;;;;;;;;15.41;100.00;100834.28;4982192;28;19926;-68
2023/07/03 04:41:24;;;;;;;;;;;;;;;15.45;100.00;100832.94;4994325;28;19930;-68
2023/07/03 04:43:51;;;;;;;;;;;;;;;15.48;100.00;100842.31;4981462;28;20407;-68
2023/07/03 04:46:26;;;;;;;;;;;;;;;15.37;100.00;100844.38;4994752;28;20115;-68
2023/07/03 04:49:04;;;;;;;;;;;;;;;15.37;100.00;100844.38;4987419;28;20449;-68
2023/07/03 04:51:30;;;;;;;;;;;;;;;15.35;100.00;100838.47;5004938;28;19929;-69
2023/07/03 04:53:58;;;;;;;;;;;;;;;15.41;100.00;100837.75;4986569;28;19936;-71
2023/07/03 04:56:25;;;;;;;;;;;;;;;15.39;100.00;100836.28;5002287;28;19936;-68
2023/07/03 04:58:52;;;;;;;;;;;;;;;15.40;100.00;100840.56;5001200;28;20168;-68
2023/07/03 05:01:19;;;;;;;;;;;;;;;15.45;100.00;100847.97;4975611;28;19929;-68
2023/07/03 05:03:45;;;;;;;;;;;;;;;15.41;100.00;100844.88;4999078;28;20009;-70
2023/07/03 05:06:12;;;;;;;;;;;;;;;15.43;100.00;100856.91;4988336;28;19933;-68
2023/07/03 05:08:38;;;;;;;;;;;;;;;15.41;100.00;100858.09;5004569;28;20020;-68
2023/07/03 05:11:04;;;;;;;;;;;;;;;15.33;100.00;100858.16;4987626;28;19929;-70
2023/07/03 05:13:31;;;;;;;;;;;;;;;15.31;100.00;100866.25;4970160;28;19953;-69
2023/07/03 05:15:57;;;;;;;;;;;;;;;15.34;100.00;100865.06;4984137;28;20037;-69
2023/07/03 05:18:24;;;;;;;;;;;;;;;15.47;100.00;100869.78;4997398;28;19937;-69
2023/07/03 05:20:50;;;;;;;;;;;;;;;15.35;100.00;100864.06;4976650;28;20007;-69
2023/07/03 05:23:17;;;;;;;;;;;;;;;15.40;100.00;100864.34;4983955;28;19930;-69
2023/07/03 05:25:45;;;;;;;;;;;;;;;15.43;100.00;100864.81;4992891;28;20557;-70
2023/07/03 05:28:12;;;;;;;;;;;;;;;15.54;100.00;100863.59;5000713;28;19969;-68
2023/07/03 05:30:38;;;;;;;;;;;;;;;15.47;100.00;100867.13;4996510;28;19930;-69
2023/07/03 05:33:04;;;;;;;;;;;;;;;15.45;100.00;100871.75;4996954;28;20312;-71
2023/07/03 05:35:31;;;;;;;;;;;;;;;15.42;100.00;100873.75;4990751;28;20015;-70
2023/07/03 05:38:00;;;;;;;;;;;;;;;15.49;100.00;100873.06;5006978;28;19929;-69
2023/07/03 05:40:27;;;;;;;;;;;;;;;15.58;100.00;100866.69;4989057;28;20389;-69
2023/07/03 05:42:54;;;;;;;;;;;;;;;15.61;100.00;100876.91;4984679;28;19941;-70
2023/07/03 05:45:20;;;;;;;;;;;;;;;15.61;100.00;100874.28;5005705;28;19930;-69
2023/07/03 05:47:47;;;;;;;;;;;;;;;15.61;100.00;100888.31;4981403;28;20053;-70
2023/07/03 05:50:13;;;;;;;;;;;;;;;15.62;100.00;100887.31;4996088;28;19939;-69
2023/07/03 05:52:41;;;;;;;;;;;;;;;15.66;100.00;100879.84;4997846;28;19976;-69
2023/07/03 05:55:08;;;;;;;;;;;;;;;15.75;100.00;100885.91;4983682;28;19949;-70
2023/07/03 05:57:34;;;;;;;;;;;;;;;15.77;100.00;100891.84;4989716;28;19961;-70
2023/07/03 06:00:01;;;;;;;;;;;;;;;15.77;100.00;100887.38;4995145;28;20016;-69
2023/07/03 06:02:27;;;;;;;;;;;;;;;15.82;100.00;100890.31;5006422;28;19941;-71
2023/07/03 06:04:54;;;;;;;;;;;;;;;15.92;100.00;100886.59;5001923;28;19972;-69
2023/07/03 06:07:20;;;;;;;;;;;;;;;15.98;100.00;100885.88;5006339;28;19972;-73
2023/07/03 06:09:47;;;;;;;;;;;;;;;16.00;100.00;100882.03;4966421;28;20044;-69
2023/07/03 06:12:13;;;;;;;;;;;;;;;15.97;100.00;100895.63;5005028;28;19930;-69
2023/07/03 06:14:39;;;;;;;;;;;;;;;16.05;100.00;100891.25;4991019;28;19929;-69
2023/07/03 06:17:06;;;;;;;;;;;;;;;16.05;100.00;100894.72;4995077;28;19934;-71
2023/07/03 06:19:32;;;;;;;;;;;;;;;16.08;100.00;100897.00;5000327;28;19937;-70
2023/07/03 06:21:59;;;;;;;;;;;;;;;16.09;100.00;100888.09;4993586;28;20012;-70
2023/07/03 06:24:25;;;;;;;;;;;;;;;16.07;100.00;100887.41;4992031;28;19936;-69
2023/07/03 06:26:52;;;;;;;;;;;;;;;16.10;100.00;100883.63;5001045;28;20002;-70
2023/07/03 06:29:18;;;;;;;;;;;;;;;16.16;100.00;100896.94;5002637;28;19929;-69
2023/07/03 06:31:45;;;;;;;;;;;;;;;16.15;100.00;100894.44;4996230;28;20611;-70
2023/07/03 06:34:11;;;;;;;;;;;;;;;16.17;100.00;100898.59;5001349;28;20093;-69
2023/07/03 06:36:38;;;;;;;;;;;;;;;16.18;100.00;100902.03;4982608;28;19926;-69
2023/07/03 06:39:04;;;;;;;;;;;;;;;16.14;100.00;100906.06;4989003;28;19930;-69
2023/07/03 06:41:33;;;;;;;;;;;;;;;16.14;100.00;100898.94;4996008;28;20167;-70
2023/07/03 06:44:00;;;;;;;;;;;;;;;16.09;100.00;100905.75;4984233;28;19929;-70
2023/07/03 06:46:26;;;;;;;;;;;;;;;16.12;100.00;100908.06;4993581;28;19992;-70
2023/07/03 06:48:54;;;;;;;;;;;;;;;16.17;100.00;100909.16;4996112;28;19961;-71
2023/07/03 06:51:20;;;;;;;;;;;;;;;16.24;100.00;100909.25;4994773;28;19968;-70
2023/07/03 06:53:46;;;;;;;;;;;;;;;16.29;100.00;100901.59;5004028;28;19933;-71
2023/07/03 06:56:13;;;;;;;;;;;;;;;16.50;100.00;100908.78;4976515;28;20448;-69
2023/07/03 06:58:39;;;;;;;;;;;;;;;16.52;100.00;100912.06;4995028;28;19957;-70
2023/07/03 07:01:07;;;;;;;;;;;;;;;16.61;100.00;100907.53;4989580;28;20394;-69
2023/07/03 07:03:33;;;;;;;;;;;;;;;16.73;100.00;100914.00;4990759;28;19988;-69
2023/07/03 07:06:06;;;;;;;;;;;;;;;16.71;100.00;100918.66;4991143;28;19930;-70
2023/07/03 07:08:32;;;;;;;;;;;;;;;16.72;100.00;100904.41;4988680;28;19929;-70
2023/07/03 07:10:59;;;;;;;;;;;;;;;16.75;100.00;100909.31;5003859;28;19933;-69
2023/07/03 07:13:25;;;;;;;;;;;;;;;16.73;100.00;100913.19;4998750;28;19961;-70
2023/07/03 07:15:52;;;;;;;;;;;;;;;16.73;100.00;100921.13;4989455;28;20016;-71
2023/07/03 07:18:18;;;;;;;;;;;;;;;16.79;100.00;100923.03;4982726;28;19960;-70
2023/07/03 07:20:45;;;;;;;;;;;;;;;16.78;100.00;100918.75;5001367;28;20024;-69
2023/07/03 07:23:11;;;;;;;;;;;;;;;16.71;100.00;100921.28;4995658;28;19996;-69
2023/07/03 07:25:38;;;;;;;;;;;;;;;16.66;100.00;100920.22;4989795;28;20454;-70
2023/07/03 07:28:05;;;;;;;;;;;;;;;16.66;100.00;100936.09;4999702;28;19945;-70
2023/07/03 07:30:31;;;;;;;;;;;;;;;16.63;100.00;100933.84;5000217;28;19975;-71
2023/07/03 07:32:58;;;;;;;;;;;;;;;16.71;100.00;100933.72;5010974;28;20009;-69
2023/07/03 07:35:24;;;;;;;;;;;;;;;16.71;100.00;100934.53;4982883;28;19934;-70
2023/07/03 07:37:51;;;;;;;;;;;;;;;16.76;100.00;100926.06;5006306;28;20456;-70
2023/07/03 07:40:17;;;;;;;;;;;;;;;16.72;100.00;100930.06;4991892;28;20008;-70
2023/07/03 07:42:43;;;;;;;;;;;;;;;16.79;100.00;100931.78;4971926;28;20104;-70
2023/07/03 07:45:10;;;;;;;;;;;;;;;16.91;100.00;100937.47;4980468;28;19965;-71
2023/07/03 07:47:38;;;;;;;;;;;;;;;16.78;100.00;100929.34;4992656;28;19973;-70
2023/07/03 07:50:05;;;;;;;;;;;;;;;16.76;100.00;100940.13;5000181;28;19929;-70
2023/07/03 07:52:31;;;;;;;;;;;;;;;16.89;100.00;100936.03;5002436;28;19929;-70
2023/07/03 07:54:58;;;;;;;;;;;;;;;17.04;100.00;100942.13;4993807;28;19929;-70
2023/07/03 07:57:25;;;;;;;;;;;;;;;17.15;100.00;100943.44;4991792;28;20021;-70
2023/07/03 07:59:52;;;;;;;;;;;;;;;17.20;100.00;100946.38;4982926;28;19973;-69
2023/07/03 08:02:18;;;;;;;;;;;;;;;17.29;100.00;100939.97;4998001;28;20040;-70
2023/07/03 08:04:45;;;;;;;;;;;;;;;17.41;100.00;100934.16;4986974;28;20017;-70
2023/07/03 08:07:12;;;;;;;;;;;;;;;17.50;100.00;100940.97;4993971;28;19929;-70
2023/07/03 08:09:38;;;;;;;;;;;;;;;17.45;100.00;100941.53;4985997;28;20005;-69
2023/07/03 08:12:05;;;;;;;;;;;;;;;17.33;100.00;100943.06;4994461;28;19977;-70
2023/07/03 08:14:32;;;;;;;;;;;;;;;17.50;100.00;100952.38;4998457;28;19929;-70
2023/07/03 08:16:58;;;;;;;;;;;;;;;17.55;96.78;100951.84;4986545;28;20030;-70
2023/07/03 08:19:24;;;;;;;;;;;;;;;17.58;95.55;100948.78;4998760;28;20468;-70
2023/07/03 08:21:51;;;;;;;;;;;;;;;17.74;94.46;100948.56;4981288;28;19973;-69
2023/07/03 08:24:17;;;;;;;;;;;;;;;17.74;92.83;100959.16;5006492;28;19929;-70
2023/07/03 08:26:45;;;;;;;;;;;;;;;17.61;92.17;100947.63;4982132;28;19933;-71
2023/07/03 08:29:12;;;;;;;;;;;;;;;17.81;93.85;100940.66;5003212;28;20393;-70
2023/07/03 08:31:38;;;;;;;;;;;;;;;17.94;92.52;100946.09;4995948;28;20031;-70
2023/07/03 08:34:05;;;;;;;;;;;;;;;17.97;88.06;100950.19;4988449;28;19930;-70
2023/07/03 08:36:31;;;;;;;;;;;;;;;17.94;89.91;100956.72;4996434;28;19930;-70
2023/07/03 08:39:02;;;;;;;;;;;;;;;18.16;90.13;100946.06;4980455;28;19930;-69
2023/07/03 08:41:28;;;;;;;;;;;;;;;18.13;83.38;100955.25;4981755;28;20007;-69
2023/07/03 08:43:56;;;;;;;;;;;;;;;18.21;84.27;100946.31;4985504;28;19936;-70
2023/07/03 08:46:24;;;;;;;;;;;;;;;18.42;82.48;100940.09;4999678;28;20298;-70
2023/07/03 08:48:53;;;;;;;;;;;;;;;18.55;79.34;100945.50;4971912;28;19933;-69
2023/07/03 08:51:21;;;;;;;;;;;;;;;18.72;75.95;100953.97;4986282;28;20429;-70
2023/07/03 08:53:51;;;;;;;;;;;;;;;18.87;71.68;100935.25;4989655;28;20227;-70
2023/07/03 08:56:22;;;;;;;;;;;;;;;19.19;69.57;100945.38;4982154;28;19973;-70
2023/07/03 08:58:53;;;;;;;;;;;;;;;19.46;69.32;100948.91;5001620;28;19977;-69
2023/07/03 09:01:28;;;;;;;;;;;;;;;19.22;63.89;100955.63;4981689;28;20466;-69
2023/07/03 09:04:23;;;;;;;;;;;;;;;19.12;66.61;100964.78;5011077;28;19940;-70
2023/07/03 09:06:55;;;;;;;;;;;;;;;19.41;66.86;100946.06;4968304;28;20306;-68
2023/07/03 09:09:40;;;;;;;;;;;;;;;19.43;70.14;100944.81;4993883;28;19929;-69
2023/07/03 09:12:25;;;;;;;;;;;;;;;19.45;72.87;100950.75;5002386;28;20388;-68
2023/07/03 09:14:59;;;;;;;;;;;;;;;19.33;73.72;100947.88;5009169;28;19933;-69
2023/07/03 09:17:30;;;;;;;;;;;;;;;19.44;74.61;100953.63;4997983;28;19930;-68
2023/07/03 09:19:57;;;;;;;;;;;;;;;19.44;70.85;100948.31;4988512;28;19929;-69
2023/07/03 09:22:37;;;;;;;;;;;;;;;19.27;69.77;100955.84;5005304;28;19972;-69
2023/07/03 09:25:04;;;;;;;;;;;;;;;19.36;70.70;100946.66;4998251;28;19933;-69
2023/07/03 09:27:30;;;;;;;;;;;;;;;19.27;72.45;100953.19;5008919;28;20008;-68
2023/07/03 09:30:00;;;;;;;;;;;;;;;19.29;70.86;100959.13;4998671;28;19930;-69
2023/07/03 09:32:28;;;;;;;;;;;;;;;18.94;68.61;100953.88;5007723;28;20024;-68
2023/07/03 09:35:11;;;;;;;;;;;;;;;18.76;70.54;100959.72;4996375;28;19934;-70
2023/07/03 09:37:39;;;;;;;;;;;;;;;18.40;72.67;100975.84;5005920;28;19929;-70
2023/07/03 09:40:09;;;;;;;;;;;;;;;18.22;74.44;100969.19;4998345;28;19930;-69
2023/07/03 09:42:36;;;;;;;;;;;;;;;18.28;76.43;100971.06;5011488;28;20008;-68
2023/07/03 09:45:11;;;;;;;;;;;;;;;18.28;76.83;100975.56;5009340;28;20394;-68
2023/07/03 09:47:37;;;;;;;;;;;;;;;18.39;77.83;100975.03;5005977;28;19929;-69
2023/07/03 09:50:05;;;;;;;;;;;;;;;18.38;76.88;100958.28;5010959;28;19925;-70
2023/07/03 09:52:33;;;;;;;;;;;;;;;18.56;76.52;100951.63;4994045;28;20027;-68
2023/07/03 09:55:02;;;;;;;;;;;;;;;18.55;76.52;100956.13;5000781;28;19930;-69
2023/07/03 09:57:28;;;;;;;;;;;;;;;18.62;75.46;100953.50;5000233;28;20032;-70
2023/07/03 10:00:06;;;;;;;;;;;;;;;18.86;73.92;100956.72;4986832;28;20366;-70
2023/07/03 10:02:33;;;;;;;;;;;;;;;19.01;71.45;100967.19;4997785;28;20445;-69
2023/07/03 10:05:06;;;;;;;;;;;;;;;19.02;70.39;100967.00;4994493;28;19930;-69
2023/07/03 10:07:39;;;;;;;;;;;;;;;18.76;69.35;100965.03;4991530;28;19933;-70
2023/07/03 10:10:11;;;;;;;;;;;;;;;18.80;70.45;100973.44;5003256;28;20314;-70
2023/07/03 10:12:55;;;;;;;;;;;;;;;18.62;65.64;100980.06;4999664;28;19936;-69
2023/07/03 10:15:29;;;;;;;;;;;;;;;18.64;65.60;100987.81;4985413;28;19964;-69
2023/07/03 10:18:04;;;;;;;;;;;;;;;18.61;65.77;100997.03;4994106;28;20025;-70
2023/07/03 10:20:35;;;;;;;;;;;;;;;18.52;64.22;100995.53;4997493;28;19936;-70
2023/07/03 10:23:04;;;;;;;;;;;;;;;18.52;64.25;100995.53;5010601;28;19933;-69
2023/07/03 10:25:34;;;;;;;;;;;;;;;18.54;64.05;100999.66;4991091;28;19976;-70
2023/07/03 10:28:03;;;;;;;;;;;;;;;18.54;63.98;100988.19;4997454;28;19929;-70
2023/07/03 10:30:31;;;;;;;;;;;;;;;18.52;62.71;101001.69;4987921;28;20319;-70
2023/07/03 10:32:59;;;;;;;;;;;;;;;18.62;62.53;100992.53;4976883;28;20109;-69
2023/07/03 10:35:27;;;;;;;;;;;;;;;18.77;62.67;100983.41;4997821;28;19941;-70
2023/07/03 10:37:59;;;;;;;;;;;;;;;19.17;62.53;100983.63;4986632;28;19930;-69
2023/07/03 10:40:30;;;;;;;;;;;;;;;19.29;61.05;100978.56;4996741;28;20437;-69
2023/07/03 10:42:59;;;;;;;;;;;;;;;19.36;58.57;100973.25;5006667;28;19983;-69
2023/07/03 10:45:29;;;;;;;;;;;;;;;19.55;59.12;100969.81;4975827;28;19984;-69
2023/07/03 10:48:02;;;;;;;;;;;;;;;19.47;58.40;100980.66;4986397;28;19933;-71
2023/07/03 10:50:31;;;;;;;;;;;;;;;19.36;57.04;100979.38;4981053;28;19937;-69
2023/07/03 10:53:07;;;;;;;;;;;;;;;19.33;56.83;100969.16;4995362;28;20490;-69
2023/07/03 10:55:39;;;;;;;;;;;;;;;19.41;56.89;100968.16;4981490;28;19940;-69
2023/07/03 10:58:19;;;;;;;;;;;;;;;19.57;57.51;100972.28;4980938;28;19976;-69
2023/07/03 11:01:01;;;;;;;;;;;;;;;19.66;56.91;100978.22;4981777;28;20390;-69
2023/07/03 11:03:43;;;;;;;;;;;;;;;19.48;55.28;100974.31;4981820;28;19940;-69
2023/07/03 11:06:18;;;;;;;;;;;;;;;19.71;55.68;100973.94;4987570;28;20390;-68
2023/07/03 11:08:57;;;;;;;;;;;;;;;19.61;55.46;100970.03;4992353;28;19941;-68
2023/07/03 11:11:47;;;;;;;;;;;;;;;19.66;56.16;100971.06;4991064;28;19932;-70
2023/07/03 11:14:28;;;;;;;;;;;;;;;19.56;57.72;100982.09;4998188;28;20382;-68
2023/07/03 11:17:05;;;;;;;;;;;;;;;19.47;56.63;100959.34;4998055;28;19937;-70
2023/07/03 11:19:38;;;;;;;;;;;;;;;19.41;58.05;100973.47;4999593;28;19929;-70
2023/07/03 11:22:13;;;;;;;;;;;;;;;19.64;59.07;100981.09;4998421;28;20020;-68
2023/07/03 11:24:55;;;;;;;;;;;;;;;19.59;57.50;100991.50;4995409;28;19940;-69
2023/07/03 11:27:26;;;;;;;;;;;;;;;19.53;55.76;100990.47;4988704;28;21292;-67
2023/07/03 11:29:56;;;;;;;;;;;;;;;19.37;54.48;100988.19;4996349;28;19933;-71
2023/07/03 11:32:23;;;;;;;;;;;;;;;19.46;55.22;100983.50;4995951;28;19966;-69
2023/07/03 11:34:51;;;;;;;;;;;;;;;19.44;55.91;100980.22;4995529;28;19968;-69
2023/07/03 11:37:33;;;;;;;;;;;;;;;19.86;56.26;100999.56;4977553;28;19930;-70
2023/07/03 11:40:21;;;;;;;;;;;;;;;20.09;55.47;100993.84;5000951;28;19930;-69
2023/07/03 11:43:13;;;;;;;;;;;;;;;20.57;56.44;100979.44;4987388;28;19957;-69
2023/07/03 11:45:50;;;;;;;;;;;;;;;20.92;53.33;100991.47;4992903;28;20658;-68
2023/07/03 11:48:27;;;;;;;;;;;;;;;20.93;50.62;100965.63;4991799;28;19929;-69
2023/07/03 11:51:02;;;;;;;;;;;;;;;20.89;51.30;100983.06;4993757;28;19930;-69
2023/07/03 11:53:49;;;;;;;;;;;;;;;21.07;51.66;100985.88;4963909;28;19973;-69
2023/07/03 11:56:30;;;;;;;;;;;;;;;21.56;52.21;100974.75;4982195;28;20366;-70
2023/07/03 11:59:01;;;;;;;;;;;;;;;21.17;51.63;100969.41;4985738;28;19929;-69
2023/07/03 12:01:30;;;;;;;;;;;;;;;21.06;53.29;100984.22;4984874;28;20381;-69
2023/07/03 12:03:59;;;;;;;;;;;;;;;21.20;53.91;100971.66;4979890;28;19925;-69
2023/07/03 12:06:40;;;;;;;;;;;;;;;20.96;53.42;100977.72;4999746;28;20037;-70
2023/07/03 12:09:26;;;;;;;;;;;;;;;20.57;54.55;100980.25;4986847;28;19933;-70
2023/07/03 12:12:03;;;;;;;;;;;;;;;20.45;55.22;100992.59;4996299;28;19929;-70
2023/07/03 12:15:01;;;;;;;;;;;;;;;20.18;56.42;100987.28;5009980;28;19980;-69
2023/07/03 12:17:29;;;;;;;;;;;;;;;20.00;57.25;100997.75;4992807;28;20370;-70
2023/07/03 12:20:07;;;;;;;;;;;;;;;19.92;57.34;100996.91;4994028;28;19981;-70
2023/07/03 12:22:39;;;;;;;;;;;;;;;20.31;57.42;100986.47;4973644;28;20012;-70
2023/07/03 12:25:08;;;;;;;;;;;;;;;20.52;56.49;100982.72;5004778;28;19944;-70
2023/07/03 12:27:35;;;;;;;;;;;;;;;21.22;57.78;100985.59;4988967;28;19930;-70
2023/07/03 12:30:02;;;;;;;;;;;;;;;21.44;53.50;100977.28;4996624;28;19977;-69
2023/07/03 12:32:30;;;;;;;;;;;;;;;21.70;53.54;100973.66;4999883;28;19936;-69
2023/07/03 12:35:16;;;;;;;;;;;;;;;21.59;51.92;100969.00;4995958;28;19930;-69
2023/07/03 12:37:44;;;;;;;;;;;;;;;21.53;51.40;100960.00;4996616;28;19980;-70
2023/07/03 12:40:11;;;;;;;;;;;;;;;21.32;51.28;100990.47;4999403;28;19945;-69
2023/07/03 12:42:37;;;;;;;;;;;;;;;21.46;51.01;100970.72;5006135;28;19964;-69